sensor_id;sensor_type;location;lat;lon;timestamp;temperature;humidity
66190;DHT22;52992;52.084;5.412;2023-05-29T00:01:51;16.50;51.90
66190;DHT22;52992;52.084;5.412;2023-05-29T00:04:18;16.50;51.60
66190;DHT22;52992;52.084;5.412;2023-05-29T00:06:48;16.40;51.60
66190;DHT22;52992;52.084;5.412;2023-05-29T00:09:15;16.50;51.60
66190;DHT22;52992;52.084;5.412;2023-05-29T00:11:42;16.50;51.50
66190;DHT22;52992;52.084;5.412;2023-05-29T00:14:09;16.40;51.40
66190;DHT22;52992;52.084;5.412;2023-05-29T00:16:40;16.30;51.70
66190;DHT22;52992;52.084;5.412;2023-05-29T00:19:07;16.30;51.80
66190;DHT22;52992;52.084;5.412;2023-05-29T00:21:35;16.30;51.70
66190;DHT22;52992;52.084;5.412;2023-05-29T00:24:02;16.30;51.90
66190;DHT22;52992;52.084;5.412;2023-05-29T00:26:29;16.30;52.00
66190;DHT22;52992;52.084;5.412;2023-05-29T00:28:57;16.40;52.00
66190;DHT22;52992;52.084;5.412;2023-05-29T00:31:24;16.40;51.60
66190;DHT22;52992;52.084;5.412;2023-05-29T00:33:51;16.40;51.30
66190;DHT22;52992;52.084;5.412;2023-05-29T00:36:18;16.30;51.60
66190;DHT22;52992;52.084;5.412;2023-05-29T00:38:45;16.30;51.50
66190;DHT22;52992;52.084;5.412;2023-05-29T00:41:15;16.30;51.50
66190;DHT22;52992;52.084;5.412;2023-05-29T00:43:43;16.40;51.70
66190;DHT22;52992;52.084;5.412;2023-05-29T00:46:13;16.40;51.40
66190;DHT22;52992;52.084;5.412;2023-05-29T00:48:43;16.40;51.20
66190;DHT22;52992;52.084;5.412;2023-05-29T00:51:11;16.50;51.20
66190;DHT22;52992;52.084;5.412;2023-05-29T00:53:40;16.40;51.10
66190;DHT22;52992;52.084;5.412;2023-05-29T00:56:07;16.40;50.90
66190;DHT22;52992;52.084;5.412;2023-05-29T00:58:35;16.30;51.10
66190;DHT22;52992;52.084;5.412;2023-05-29T01:01:03;16.30;51.00
66190;DHT22;52992;52.084;5.412;2023-05-29T01:03:30;16.20;50.90
66190;DHT22;52992;52.084;5.412;2023-05-29T01:05:59;16.20;50.90
66190;DHT22;52992;52.084;5.412;2023-05-29T01:08:27;16.20;50.80
66190;DHT22;52992;52.084;5.412;2023-05-29T01:11:00;16.20;50.70
66190;DHT22;52992;52.084;5.412;2023-05-29T01:13:31;16.10;50.90
66190;DHT22;52992;52.084;5.412;2023-05-29T01:16:09;16.20;50.70
66190;DHT22;52992;52.084;5.412;2023-05-29T01:27:10;16.10;50.80
66190;DHT22;52992;52.084;5.412;2023-05-29T01:29:39;16.10;50.60
66190;DHT22;52992;52.084;5.412;2023-05-29T01:32:10;16.10;50.70
66190;DHT22;52992;52.084;5.412;2023-05-29T01:34:37;16.10;50.60
66190;DHT22;52992;52.084;5.412;2023-05-29T01:37:04;16.20;50.70
66190;DHT22;52992;52.084;5.412;2023-05-29T01:39:31;16.10;50.40
66190;DHT22;52992;52.084;5.412;2023-05-29T01:41:59;16.10;50.40
66190;DHT22;52992;52.084;5.412;2023-05-29T01:44:27;16.00;50.60
66190;DHT22;52992;52.084;5.412;2023-05-29T01:46:55;15.90;50.40
66190;DHT22;52992;52.084;5.412;2023-05-29T01:49:24;15.90;50.60
66190;DHT22;52992;52.084;5.412;2023-05-29T01:51:51;15.80;50.50
66190;DHT22;52992;52.084;5.412;2023-05-29T01:54:18;15.90;50.70
66190;DHT22;52992;52.084;5.412;2023-05-29T01:56:46;15.80;50.50
66190;DHT22;52992;52.084;5.412;2023-05-29T01:59:13;15.80;50.80
66190;DHT22;52992;52.084;5.412;2023-05-29T02:01:41;15.80;51.00
66190;DHT22;52992;52.084;5.412;2023-05-29T02:04:08;15.80;51.10
66190;DHT22;52992;52.084;5.412;2023-05-29T02:06:35;15.80;50.90
66190;DHT22;52992;52.084;5.412;2023-05-29T02:09:02;15.70;51.00
66190;DHT22;52992;52.084;5.412;2023-05-29T02:11:29;15.70;51.00
66190;DHT22;52992;52.084;5.412;2023-05-29T02:13:56;15.60;51.10
66190;DHT22;52992;52.084;5.412;2023-05-29T02:16:24;15.50;51.40
66190;DHT22;52992;52.084;5.412;2023-05-29T02:18:55;15.50;51.70
66190;DHT22;52992;52.084;5.412;2023-05-29T02:21:22;15.40;51.50
66190;DHT22;52992;52.084;5.412;2023-05-29T02:23:48;15.40;51.60
66190;DHT22;52992;52.084;5.412;2023-05-29T02:26:16;15.30;51.80
66190;DHT22;52992;52.084;5.412;2023-05-29T02:28:43;15.40;52.00
66190;DHT22;52992;52.084;5.412;2023-05-29T02:31:09;15.30;51.90
66190;DHT22;52992;52.084;5.412;2023-05-29T02:33:37;15.30;52.00
66190;DHT22;52992;52.084;5.412;2023-05-29T02:36:04;15.30;52.10
66190;DHT22;52992;52.084;5.412;2023-05-29T02:38:30;15.30;52.00
66190;DHT22;52992;52.084;5.412;2023-05-29T02:40:59;15.40;52.10
66190;DHT22;52992;52.084;5.412;2023-05-29T02:43:25;15.30;52.10
66190;DHT22;52992;52.084;5.412;2023-05-29T02:45:54;15.20;52.10
66190;DHT22;52992;52.084;5.412;2023-05-29T02:48:21;15.20;52.20
66190;DHT22;52992;52.084;5.412;2023-05-29T02:50:48;15.20;52.20
66190;DHT22;52992;52.084;5.412;2023-05-29T02:53:15;15.10;52.30
66190;DHT22;52992;52.084;5.412;2023-05-29T02:55:42;15.20;52.30
66190;DHT22;52992;52.084;5.412;2023-05-29T02:58:09;15.10;52.40
66190;DHT22;52992;52.084;5.412;2023-05-29T03:00:38;15.10;52.40
66190;DHT22;52992;52.084;5.412;2023-05-29T03:03:05;15.10;52.50
66190;DHT22;52992;52.084;5.412;2023-05-29T03:05:32;15.10;53.30
66190;DHT22;52992;52.084;5.412;2023-05-29T03:07:59;15.00;52.50
66190;DHT22;52992;52.084;5.412;2023-05-29T03:10:28;15.00;52.50
66190;DHT22;52992;52.084;5.412;2023-05-29T03:12:55;14.90;52.70
66190;DHT22;52992;52.084;5.412;2023-05-29T03:15:22;14.90;52.80
66190;DHT22;52992;52.084;5.412;2023-05-29T03:17:49;14.90;52.80
66190;DHT22;52992;52.084;5.412;2023-05-29T03:20:20;14.90;52.80
66190;DHT22;52992;52.084;5.412;2023-05-29T03:22:51;14.90;52.70
66190;DHT22;52992;52.084;5.412;2023-05-29T03:25:20;14.90;52.90
66190;DHT22;52992;52.084;5.412;2023-05-29T03:27:47;14.90;52.90
66190;DHT22;52992;52.084;5.412;2023-05-29T03:30:18;14.90;53.00
66190;DHT22;52992;52.084;5.412;2023-05-29T03:32:48;15.00;52.90
66190;DHT22;52992;52.084;5.412;2023-05-29T03:35:16;14.90;52.90
66190;DHT22;52992;52.084;5.412;2023-05-29T03:37:43;14.90;52.80
66190;DHT22;52992;52.084;5.412;2023-05-29T03:40:11;15.00;52.90
66190;DHT22;52992;52.084;5.412;2023-05-29T03:42:38;15.00;52.80
66190;DHT22;52992;52.084;5.412;2023-05-29T03:45:05;15.00;52.50
66190;DHT22;52992;52.084;5.412;2023-05-29T03:47:35;14.90;52.50
66190;DHT22;52992;52.084;5.412;2023-05-29T03:50:03;14.90;52.60
66190;DHT22;52992;52.084;5.412;2023-05-29T03:52:34;14.90;52.60
66190;DHT22;52992;52.084;5.412;2023-05-29T03:55:02;14.80;52.60
66190;DHT22;52992;52.084;5.412;2023-05-29T03:57:29;14.80;52.60
66190;DHT22;52992;52.084;5.412;2023-05-29T03:59:56;14.90;52.60
66190;DHT22;52992;52.084;5.412;2023-05-29T04:02:26;14.80;52.50
66190;DHT22;52992;52.084;5.412;2023-05-29T04:04:53;14.90;52.50
66190;DHT22;52992;52.084;5.412;2023-05-29T04:07:21;14.90;52.50
66190;DHT22;52992;52.084;5.412;2023-05-29T04:09:49;15.00;52.30
66190;DHT22;52992;52.084;5.412;2023-05-29T04:12:16;15.00;52.20
66190;DHT22;52992;52.084;5.412;2023-05-29T04:14:43;15.10;52.20
66190;DHT22;52992;52.084;5.412;2023-05-29T04:17:11;15.10;52.10
66190;DHT22;52992;52.084;5.412;2023-05-29T04:19:38;15.20;51.80
66190;DHT22;52992;52.084;5.412;2023-05-29T04:22:05;15.20;51.70
66190;DHT22;52992;52.084;5.412;2023-05-29T04:24:32;15.20;51.60
66190;DHT22;52992;52.084;5.412;2023-05-29T04:27:00;15.20;51.50
66190;DHT22;52992;52.084;5.412;2023-05-29T04:29:31;15.20;51.30
66190;DHT22;52992;52.084;5.412;2023-05-29T04:31:59;15.10;51.10
66190;DHT22;52992;52.084;5.412;2023-05-29T04:34:29;15.10;51.30
66190;DHT22;52992;52.084;5.412;2023-05-29T04:36:57;15.10;51.30
66190;DHT22;52992;52.084;5.412;2023-05-29T04:39:25;15.10;51.20
66190;DHT22;52992;52.084;5.412;2023-05-29T04:41:53;15.10;51.10
66190;DHT22;52992;52.084;5.412;2023-05-29T04:44:22;15.10;51.20
66190;DHT22;52992;52.084;5.412;2023-05-29T04:46:53;15.10;51.90
66190;DHT22;52992;52.084;5.412;2023-05-29T04:49:20;15.10;51.20
66190;DHT22;52992;52.084;5.412;2023-05-29T04:51:48;15.10;51.00
66190;DHT22;52992;52.084;5.412;2023-05-29T04:54:19;15.00;51.60
66190;DHT22;52992;52.084;5.412;2023-05-29T04:56:50;15.00;51.10
66190;DHT22;52992;52.084;5.412;2023-05-29T04:59:18;15.00;51.40
66190;DHT22;52992;52.084;5.412;2023-05-29T05:01:46;15.00;51.50
66190;DHT22;52992;52.084;5.412;2023-05-29T05:04:14;15.00;51.30
66190;DHT22;52992;52.084;5.412;2023-05-29T05:06:41;15.10;51.60
66190;DHT22;52992;52.084;5.412;2023-05-29T05:09:08;15.20;51.90
66190;DHT22;52992;52.084;5.412;2023-05-29T05:11:34;15.30;51.30
66190;DHT22;52992;52.084;5.412;2023-05-29T05:14:02;15.30;51.10
66190;DHT22;52992;52.084;5.412;2023-05-29T05:16:29;15.40;50.90
66190;DHT22;52992;52.084;5.412;2023-05-29T05:18:57;15.40;51.00
66190;DHT22;52992;52.084;5.412;2023-05-29T05:21:23;15.50;50.90
66190;DHT22;52992;52.084;5.412;2023-05-29T05:23:52;15.50;50.70
66190;DHT22;52992;52.084;5.412;2023-05-29T05:26:25;15.50;50.70
66190;DHT22;52992;52.084;5.412;2023-05-29T05:28:55;15.60;50.80
66190;DHT22;52992;52.084;5.412;2023-05-29T05:31:24;15.60;50.50
66190;DHT22;52992;52.084;5.412;2023-05-29T05:33:52;15.70;50.50
66190;DHT22;52992;52.084;5.412;2023-05-29T05:36:19;15.70;50.30
66190;DHT22;52992;52.084;5.412;2023-05-29T05:38:51;15.80;50.20
66190;DHT22;52992;52.084;5.412;2023-05-29T05:41:18;15.80;49.60
66190;DHT22;52992;52.084;5.412;2023-05-29T05:43:45;15.70;49.40
66190;DHT22;52992;52.084;5.412;2023-05-29T05:46:27;15.70;49.40
66190;DHT22;52992;52.084;5.412;2023-05-29T05:48:55;15.70;49.40
66190;DHT22;52992;52.084;5.412;2023-05-29T05:51:25;15.70;49.60
66190;DHT22;52992;52.084;5.412;2023-05-29T05:53:52;15.90;49.20
66190;DHT22;52992;52.084;5.412;2023-05-29T05:56:20;15.90;48.60
66190;DHT22;52992;52.084;5.412;2023-05-29T05:58:46;15.90;49.10
66190;DHT22;52992;52.084;5.412;2023-05-29T06:01:17;16.10;49.00
66190;DHT22;52992;52.084;5.412;2023-05-29T06:03:45;16.20;48.80
66190;DHT22;52992;52.084;5.412;2023-05-29T06:06:12;16.30;48.20
66190;DHT22;52992;52.084;5.412;2023-05-29T06:08:41;16.40;48.20
66190;DHT22;52992;52.084;5.412;2023-05-29T06:11:09;16.40;47.60
66190;DHT22;52992;52.084;5.412;2023-05-29T06:13:38;16.40;47.30
66190;DHT22;52992;52.084;5.412;2023-05-29T06:16:14;16.40;47.30
66190;DHT22;52992;52.084;5.412;2023-05-29T06:18:41;16.50;47.30
66190;DHT22;52992;52.084;5.412;2023-05-29T06:21:08;16.60;46.50
66190;DHT22;52992;52.084;5.412;2023-05-29T06:23:42;16.60;46.40
66190;DHT22;52992;52.084;5.412;2023-05-29T06:26:09;16.70;46.10
66190;DHT22;52992;52.084;5.412;2023-05-29T06:28:38;16.80;46.00
66190;DHT22;52992;52.084;5.412;2023-05-29T06:31:05;16.80;45.60
66190;DHT22;52992;52.084;5.412;2023-05-29T06:33:32;16.80;45.40
66190;DHT22;52992;52.084;5.412;2023-05-29T06:35:59;16.90;45.40
66190;DHT22;52992;52.084;5.412;2023-05-29T06:38:29;17.00;45.20
66190;DHT22;52992;52.084;5.412;2023-05-29T06:40:56;17.00;43.90
66190;DHT22;52992;52.084;5.412;2023-05-29T06:43:23;17.10;44.70
66190;DHT22;52992;52.084;5.412;2023-05-29T06:45:56;17.20;44.20
66190;DHT22;52992;52.084;5.412;2023-05-29T06:48:23;17.20;43.50
66190;DHT22;52992;52.084;5.412;2023-05-29T06:50:50;17.00;42.40
66190;DHT22;52992;52.084;5.412;2023-05-29T06:53:36;17.00;43.30
66190;DHT22;52992;52.084;5.412;2023-05-29T06:56:03;17.10;43.70
66190;DHT22;52992;52.084;5.412;2023-05-29T06:58:32;17.20;43.60
66190;DHT22;52992;52.084;5.412;2023-05-29T07:00:59;17.30;43.60
66190;DHT22;52992;52.084;5.412;2023-05-29T07:03:32;17.40;43.00
66190;DHT22;52992;52.084;5.412;2023-05-29T07:06:01;17.50;42.20
66190;DHT22;52992;52.084;5.412;2023-05-29T07:08:28;17.60;43.40
66190;DHT22;52992;52.084;5.412;2023-05-29T07:10:55;17.60;43.00
66190;DHT22;52992;52.084;5.412;2023-05-29T07:13:25;17.60;41.20
66190;DHT22;52992;52.084;5.412;2023-05-29T07:15:52;17.60;41.10
66190;DHT22;52992;52.084;5.412;2023-05-29T07:18:25;17.60;41.40
66190;DHT22;52992;52.084;5.412;2023-05-29T07:20:53;17.60;41.70
66190;DHT22;52992;52.084;5.412;2023-05-29T07:23:21;17.80;42.70
66190;DHT22;52992;52.084;5.412;2023-05-29T07:25:47;18.00;42.30
66190;DHT22;52992;52.084;5.412;2023-05-29T07:28:14;18.10;42.30
66190;DHT22;52992;52.084;5.412;2023-05-29T07:30:49;18.20;41.70
66190;DHT22;52992;52.084;5.412;2023-05-29T07:33:15;18.40;42.10
66190;DHT22;52992;52.084;5.412;2023-05-29T07:35:43;18.40;41.40
66190;DHT22;52992;52.084;5.412;2023-05-29T07:38:10;18.50;40.70
66190;DHT22;52992;52.084;5.412;2023-05-29T07:40:39;18.50;40.20
66190;DHT22;52992;52.084;5.412;2023-05-29T07:43:19;18.50;40.40
66190;DHT22;52992;52.084;5.412;2023-05-29T07:45:54;18.50;40.30
66190;DHT22;52992;52.084;5.412;2023-05-29T07:48:22;18.50;40.60
66190;DHT22;52992;52.084;5.412;2023-05-29T07:50:50;18.60;40.10
66190;DHT22;52992;52.084;5.412;2023-05-29T07:53:19;18.60;40.30
66190;DHT22;52992;52.084;5.412;2023-05-29T07:55:46;18.70;40.40
66190;DHT22;52992;52.084;5.412;2023-05-29T07:58:13;18.70;39.80
66190;DHT22;52992;52.084;5.412;2023-05-29T08:00:44;18.70;39.10
66190;DHT22;52992;52.084;5.412;2023-05-29T08:03:13;18.70;39.20
66190;DHT22;52992;52.084;5.412;2023-05-29T08:06:06;18.60;39.20
66190;DHT22;52992;52.084;5.412;2023-05-29T08:08:34;18.70;39.60
66190;DHT22;52992;52.084;5.412;2023-05-29T08:11:01;18.80;39.30
66190;DHT22;52992;52.084;5.412;2023-05-29T08:13:30;18.80;38.40
66190;DHT22;52992;52.084;5.412;2023-05-29T08:15:57;18.80;37.60
66190;DHT22;52992;52.084;5.412;2023-05-29T08:18:25;18.70;38.00
66190;DHT22;52992;52.084;5.412;2023-05-29T08:20:52;18.80;38.40
66190;DHT22;52992;52.084;5.412;2023-05-29T08:23:20;18.90;38.90
66190;DHT22;52992;52.084;5.412;2023-05-29T08:25:47;18.90;37.30
66190;DHT22;52992;52.084;5.412;2023-05-29T08:28:15;18.70;37.60
66190;DHT22;52992;52.084;5.412;2023-05-29T08:30:42;18.80;37.80
66190;DHT22;52992;52.084;5.412;2023-05-29T08:33:09;18.70;37.10
66190;DHT22;52992;52.084;5.412;2023-05-29T08:35:36;18.70;37.50
66190;DHT22;52992;52.084;5.412;2023-05-29T08:38:03;18.80;37.50
66190;DHT22;52992;52.084;5.412;2023-05-29T08:40:30;18.90;37.40
66190;DHT22;52992;52.084;5.412;2023-05-29T08:43:10;19.00;37.70
66190;DHT22;52992;52.084;5.412;2023-05-29T08:45:41;19.20;37.90
66190;DHT22;52992;52.084;5.412;2023-05-29T08:48:10;19.40;37.00
66190;DHT22;52992;52.084;5.412;2023-05-29T08:50:44;19.60;37.40
66190;DHT22;52992;52.084;5.412;2023-05-29T08:53:15;19.70;36.50
66190;DHT22;52992;52.084;5.412;2023-05-29T08:55:42;19.60;35.40
66190;DHT22;52992;52.084;5.412;2023-05-29T08:58:09;19.50;36.00
66190;DHT22;52992;52.084;5.412;2023-05-29T09:00:38;19.50;36.30
66190;DHT22;52992;52.084;5.412;2023-05-29T09:03:07;19.60;36.70
66190;DHT22;52992;52.084;5.412;2023-05-29T09:05:35;19.70;36.70
66190;DHT22;52992;52.084;5.412;2023-05-29T09:08:11;19.90;37.00
66190;DHT22;52992;52.084;5.412;2023-05-29T09:10:42;20.00;36.50
66190;DHT22;52992;52.084;5.412;2023-05-29T09:13:13;20.10;35.80
66190;DHT22;52992;52.084;5.412;2023-05-29T09:15:41;20.10;35.50
66190;DHT22;52992;52.084;5.412;2023-05-29T09:18:11;20.20;35.30
66190;DHT22;52992;52.084;5.412;2023-05-29T09:20:38;20.20;35.00
66190;DHT22;52992;52.084;5.412;2023-05-29T09:23:08;20.20;35.70
66190;DHT22;52992;52.084;5.412;2023-05-29T09:25:42;20.50;35.80
66190;DHT22;52992;52.084;5.412;2023-05-29T09:28:12;20.70;34.70
66190;DHT22;52992;52.084;5.412;2023-05-29T09:30:44;20.70;34.30
66190;DHT22;52992;52.084;5.412;2023-05-29T09:33:13;20.70;34.00
66190;DHT22;52992;52.084;5.412;2023-05-29T09:35:41;20.80;34.40
66190;DHT22;52992;52.084;5.412;2023-05-29T09:38:10;20.80;33.20
66190;DHT22;52992;52.084;5.412;2023-05-29T09:40:50;20.80;33.70
66190;DHT22;52992;52.084;5.412;2023-05-29T09:43:18;21.00;34.10
66190;DHT22;52992;52.084;5.412;2023-05-29T09:45:48;21.20;33.40
66190;DHT22;52992;52.084;5.412;2023-05-29T09:48:22;21.20;32.70
66190;DHT22;52992;52.084;5.412;2023-05-29T09:50:49;21.20;33.00
66190;DHT22;52992;52.084;5.412;2023-05-29T09:53:24;21.00;32.10
66190;DHT22;52992;52.084;5.412;2023-05-29T09:55:53;21.10;33.10
66190;DHT22;52992;52.084;5.412;2023-05-29T09:58:22;21.20;32.20
66190;DHT22;52992;52.084;5.412;2023-05-29T10:00:50;21.30;32.20
66190;DHT22;52992;52.084;5.412;2023-05-29T10:03:18;21.50;32.30
66190;DHT22;52992;52.084;5.412;2023-05-29T10:05:53;21.60;31.10
66190;DHT22;52992;52.084;5.412;2023-05-29T10:08:24;21.70;31.90
66190;DHT22;52992;52.084;5.412;2023-05-29T10:10:59;21.80;31.40
66190;DHT22;52992;52.084;5.412;2023-05-29T10:13:29;22.10;32.50
66190;DHT22;52992;52.084;5.412;2023-05-29T10:15:59;22.40;30.90
66190;DHT22;52992;52.084;5.412;2023-05-29T10:18:32;22.60;30.70
66190;DHT22;52992;52.084;5.412;2023-05-29T10:21:02;22.80;30.80
66190;DHT22;52992;52.084;5.412;2023-05-29T10:23:30;22.80;30.10
66190;DHT22;52992;52.084;5.412;2023-05-29T10:26:06;22.60;30.10
66190;DHT22;52992;52.084;5.412;2023-05-29T10:28:39;22.40;30.10
66190;DHT22;52992;52.084;5.412;2023-05-29T10:31:18;22.40;30.20
66190;DHT22;52992;52.084;5.412;2023-05-29T10:34:07;22.40;31.10
66190;DHT22;52992;52.084;5.412;2023-05-29T10:36:44;22.60;29.90
66190;DHT22;52992;52.084;5.412;2023-05-29T10:39:11;22.70;30.00
66190;DHT22;52992;52.084;5.412;2023-05-29T10:41:39;22.90;29.40
66190;DHT22;52992;52.084;5.412;2023-05-29T10:47:01;23.00;29.50
66190;DHT22;52992;52.084;5.412;2023-05-29T10:49:29;23.40;30.20
66190;DHT22;52992;52.084;5.412;2023-05-29T10:51:57;23.70;29.50
66190;DHT22;52992;52.084;5.412;2023-05-29T10:54:26;24.00;29.40
66190;DHT22;52992;52.084;5.412;2023-05-29T10:56:58;24.30;29.40
66190;DHT22;52992;52.084;5.412;2023-05-29T10:59:27;24.50;27.90
66190;DHT22;52992;52.084;5.412;2023-05-29T11:01:56;24.50;27.60
66190;DHT22;52992;52.084;5.412;2023-05-29T11:06:53;24.90;27.40
66190;DHT22;52992;52.084;5.412;2023-05-29T11:09:34;25.50;27.00
66190;DHT22;52992;52.084;5.412;2023-05-29T11:15:05;26.80;25.80
66190;DHT22;52992;52.084;5.412;2023-05-29T11:20:18;27.80;24.20
66190;DHT22;52992;52.084;5.412;2023-05-29T11:23:06;28.00;24.10
66190;DHT22;52992;52.084;5.412;2023-05-29T11:25:37;28.30;23.20
66190;DHT22;52992;52.084;5.412;2023-05-29T11:28:05;28.80;22.80
66190;DHT22;52992;52.084;5.412;2023-05-29T11:30:45;29.20;22.70
66190;DHT22;52992;52.084;5.412;2023-05-29T11:33:33;29.20;21.60
66190;DHT22;52992;52.084;5.412;2023-05-29T11:36:02;28.80;21.90
66190;DHT22;52992;52.084;5.412;2023-05-29T11:38:29;28.90;22.20
66190;DHT22;52992;52.084;5.412;2023-05-29T11:40:57;29.10;21.80
66190;DHT22;52992;52.084;5.412;2023-05-29T11:43:27;29.00;22.70
66190;DHT22;52992;52.084;5.412;2023-05-29T11:45:54;29.20;22.50
66190;DHT22;52992;52.084;5.412;2023-05-29T11:48:21;29.50;21.50
66190;DHT22;52992;52.084;5.412;2023-05-29T11:50:50;29.50;22.20
66190;DHT22;52992;52.084;5.412;2023-05-29T11:53:17;29.50;21.70
66190;DHT22;52992;52.084;5.412;2023-05-29T11:55:44;29.20;21.90
66190;DHT22;52992;52.084;5.412;2023-05-29T11:58:11;28.70;21.50
66190;DHT22;52992;52.084;5.412;2023-05-29T12:00:39;28.00;22.90
66190;DHT22;52992;52.084;5.412;2023-05-29T12:03:07;27.30;23.80
66190;DHT22;52992;52.084;5.412;2023-05-29T12:05:47;26.70;23.90
66190;DHT22;52992;52.084;5.412;2023-05-29T12:08:22;26.40;24.10
66190;DHT22;52992;52.084;5.412;2023-05-29T12:10:53;26.60;24.50
66190;DHT22;52992;52.084;5.412;2023-05-29T12:13:20;27.10;24.20
66190;DHT22;52992;52.084;5.412;2023-05-29T12:15:49;26.90;24.10
66190;DHT22;52992;52.084;5.412;2023-05-29T12:18:19;26.70;24.50
66190;DHT22;52992;52.084;5.412;2023-05-29T12:20:46;26.80;23.70
66190;DHT22;52992;52.084;5.412;2023-05-29T12:23:14;26.80;23.80
66190;DHT22;52992;52.084;5.412;2023-05-29T12:25:41;26.70;24.20
66190;DHT22;52992;52.084;5.412;2023-05-29T12:28:16;26.80;24.30
66190;DHT22;52992;52.084;5.412;2023-05-29T12:30:47;26.90;24.10
66190;DHT22;52992;52.084;5.412;2023-05-29T12:33:29;27.00;23.60
66190;DHT22;52992;52.084;5.412;2023-05-29T12:36:08;26.90;23.60
66190;DHT22;52992;52.084;5.412;2023-05-29T12:38:50;26.70;23.40
66190;DHT22;52992;52.084;5.412;2023-05-29T12:41:23;26.50;24.40
66190;DHT22;52992;52.084;5.412;2023-05-29T12:43:53;26.50;24.20
66190;DHT22;52992;52.084;5.412;2023-05-29T12:46:20;26.20;24.00
66190;DHT22;52992;52.084;5.412;2023-05-29T12:48:47;26.20;24.60
66190;DHT22;52992;52.084;5.412;2023-05-29T12:51:14;26.60;24.20
66190;DHT22;52992;52.084;5.412;2023-05-29T12:53:40;27.20;24.00
66190;DHT22;52992;52.084;5.412;2023-05-29T12:56:07;27.40;23.20
66190;DHT22;52992;52.084;5.412;2023-05-29T12:58:34;27.50;23.10
66190;DHT22;52992;52.084;5.412;2023-05-29T13:01:01;27.30;23.00
66190;DHT22;52992;52.084;5.412;2023-05-29T13:03:28;26.80;23.40
66190;DHT22;52992;52.084;5.412;2023-05-29T13:05:55;26.50;24.10
66190;DHT22;52992;52.084;5.412;2023-05-29T13:08:23;26.40;23.00
66190;DHT22;52992;52.084;5.412;2023-05-29T13:10:50;25.90;23.50
66190;DHT22;52992;52.084;5.412;2023-05-29T13:13:17;25.30;24.30
66190;DHT22;52992;52.084;5.412;2023-05-29T13:15:45;24.90;25.10
66190;DHT22;52992;52.084;5.412;2023-05-29T13:18:11;24.50;25.60
66190;DHT22;52992;52.084;5.412;2023-05-29T13:20:38;24.40;25.30
66190;DHT22;52992;52.084;5.412;2023-05-29T13:23:05;24.50;25.80
66190;DHT22;52992;52.084;5.412;2023-05-29T13:25:32;24.50;25.30
66190;DHT22;52992;52.084;5.412;2023-05-29T13:27:59;24.50;26.10
66190;DHT22;52992;52.084;5.412;2023-05-29T13:30:26;24.60;26.60
66190;DHT22;52992;52.084;5.412;2023-05-29T13:32:53;24.70;26.20
66190;DHT22;52992;52.084;5.412;2023-05-29T13:35:20;24.80;26.40
66190;DHT22;52992;52.084;5.412;2023-05-29T13:37:48;24.80;25.90
66190;DHT22;52992;52.084;5.412;2023-05-29T13:40:15;24.60;26.20
66190;DHT22;52992;52.084;5.412;2023-05-29T13:42:42;24.50;26.10
66190;DHT22;52992;52.084;5.412;2023-05-29T13:45:09;24.30;25.90
66190;DHT22;52992;52.084;5.412;2023-05-29T13:47:38;24.10;26.20
66190;DHT22;52992;52.084;5.412;2023-05-29T13:50:05;24.00;26.50
66190;DHT22;52992;52.084;5.412;2023-05-29T13:52:33;23.90;26.70
66190;DHT22;52992;52.084;5.412;2023-05-29T13:55:00;23.80;26.70
66190;DHT22;52992;52.084;5.412;2023-05-29T13:57:32;23.90;27.10
66190;DHT22;52992;52.084;5.412;2023-05-29T13:59:59;23.90;26.50
66190;DHT22;52992;52.084;5.412;2023-05-29T14:02:26;23.80;26.30
66190;DHT22;52992;52.084;5.412;2023-05-29T14:04:53;23.60;26.20
66190;DHT22;52992;52.084;5.412;2023-05-29T14:07:20;23.50;27.00
66190;DHT22;52992;52.084;5.412;2023-05-29T14:09:47;23.50;27.10
66190;DHT22;52992;52.084;5.412;2023-05-29T14:12:14;23.50;27.00
66190;DHT22;52992;52.084;5.412;2023-05-29T14:14:41;23.50;27.40
66190;DHT22;52992;52.084;5.412;2023-05-29T14:17:08;23.50;28.00
66190;DHT22;52992;52.084;5.412;2023-05-29T14:19:35;23.50;27.60
66190;DHT22;52992;52.084;5.412;2023-05-29T14:22:02;23.40;27.30
66190;DHT22;52992;52.084;5.412;2023-05-29T14:24:30;23.40;27.30
66190;DHT22;52992;52.084;5.412;2023-05-29T14:26:57;23.40;27.70
66190;DHT22;52992;52.084;5.412;2023-05-29T14:29:24;23.30;27.20
66190;DHT22;52992;52.084;5.412;2023-05-29T14:31:51;23.30;28.00
66190;DHT22;52992;52.084;5.412;2023-05-29T14:34:18;23.40;28.20
66190;DHT22;52992;52.084;5.412;2023-05-29T14:36:45;23.40;27.70
66190;DHT22;52992;52.084;5.412;2023-05-29T14:39:12;23.30;27.70
66190;DHT22;52992;52.084;5.412;2023-05-29T14:41:39;23.40;28.30
66190;DHT22;52992;52.084;5.412;2023-05-29T14:44:06;23.40;28.80
66190;DHT22;52992;52.084;5.412;2023-05-29T14:46:33;23.40;28.10
66190;DHT22;52992;52.084;5.412;2023-05-29T14:49:00;23.40;27.60
66190;DHT22;52992;52.084;5.412;2023-05-29T14:51:27;23.20;27.40
66190;DHT22;52992;52.084;5.412;2023-05-29T14:53:55;23.10;27.80
66190;DHT22;52992;52.084;5.412;2023-05-29T14:56:22;23.10;27.90
66190;DHT22;52992;52.084;5.412;2023-05-29T14:58:49;23.00;27.50
66190;DHT22;52992;52.084;5.412;2023-05-29T15:01:17;22.90;27.70
66190;DHT22;52992;52.084;5.412;2023-05-29T15:03:44;22.90;26.80
66190;DHT22;52992;52.084;5.412;2023-05-29T15:06:12;22.80;26.90
66190;DHT22;52992;52.084;5.412;2023-05-29T15:08:40;22.70;27.20
66190;DHT22;52992;52.084;5.412;2023-05-29T15:11:09;22.70;27.70
66190;DHT22;52992;52.084;5.412;2023-05-29T15:13:38;22.70;28.00
66190;DHT22;52992;52.084;5.412;2023-05-29T15:16:05;22.80;27.90
66190;DHT22;52992;52.084;5.412;2023-05-29T15:18:33;22.90;28.40
66190;DHT22;52992;52.084;5.412;2023-05-29T15:21:00;22.80;27.50
66190;DHT22;52992;52.084;5.412;2023-05-29T15:23:27;22.80;28.00
66190;DHT22;52992;52.084;5.412;2023-05-29T15:25:54;22.80;27.90
66190;DHT22;52992;52.084;5.412;2023-05-29T15:28:22;22.80;27.70
66190;DHT22;52992;52.084;5.412;2023-05-29T15:30:49;22.90;27.90
66190;DHT22;52992;52.084;5.412;2023-05-29T15:33:16;23.00;27.90
66190;DHT22;52992;52.084;5.412;2023-05-29T15:35:43;23.00;27.50
66190;DHT22;52992;52.084;5.412;2023-05-29T15:38:10;23.10;27.90
66190;DHT22;52992;52.084;5.412;2023-05-29T15:40:39;23.10;27.50
66190;DHT22;52992;52.084;5.412;2023-05-29T15:43:08;23.10;27.50
66190;DHT22;52992;52.084;5.412;2023-05-29T15:45:38;23.00;26.80
66190;DHT22;52992;52.084;5.412;2023-05-29T15:48:06;22.90;27.30
66190;DHT22;52992;52.084;5.412;2023-05-29T15:50:34;22.90;27.50
66190;DHT22;52992;52.084;5.412;2023-05-29T15:53:00;22.90;27.20
66190;DHT22;52992;52.084;5.412;2023-05-29T15:55:27;22.80;26.60
66190;DHT22;52992;52.084;5.412;2023-05-29T15:57:54;22.70;26.60
66190;DHT22;52992;52.084;5.412;2023-05-29T16:00:21;22.60;26.90